Time;durP1;ratioP1;P1;durP2;ratioP2;P2;SDS_P1;SDS_P2;PMS_P1;PMS_P2;Temp;Humidity;BMP_temperature;BMP_pressure;BME280_temperature;BME280_humidity;BME280_pressure;Samples;Min_cycle;Max_cycle;Signal;HPM_P1;HPM_P2
2021/08/05 04:44:40;;;;;;;;;;;;;;;;;;;;;
2021/08/05 04:54:02;;;;;;;;;;;;;;;;;;;;;
2021/08/05 05:03:33;;;;;;;7.80;7.10;;;17.50;91.80;;;;;;6112366;23;20089;-88
2021/08/05 05:06:32;;;;;;;;;;;;;;;;;;;;;
2021/08/05 05:09:36;;;;;;;;;;;;;;;;;;;;;
2021/08/05 05:12:34;;;;;;;;;;;;;;;;;;;;;
2021/08/05 05:50:59;;;;;;;;;;;;;;;;;;;;;
2021/08/05 05:54:27;;;;;;;;;;;;;;;;;;;;;
2021/08/05 06:08:22;;;;;;;;;;;;;;;;;;;;;
2021/08/05 06:22:29;;;;;;;;;;;;;;;;;;;;;
2021/08/05 06:25:36;;;;;;;9.95;8.98;;;17.70;91.20;;;;;;5925385;24;20014;-91
2021/08/05 06:32:51;;;;;;;;;;;;;;;;;;;;;
2021/08/05 06:47:09;;;;;;;;;;;;;;;;;;;;;
2021/08/05 08:08:33;;;;;;;;;;;;;;;;;;;;;
2021/08/05 08:15:25;;;;;;;;;;;;;;;;;;;;;
2021/08/05 08:18:44;;;;;;;;;;;;;;;;;;;;;
2021/08/05 08:22:06;;;;;;;;;;;;;;;;;;;;;
2021/08/05 08:39:13;;;;;;;;;;;;;;;;;;;;;
2021/08/05 08:42:32;;;;;;;;;;;;;;;;;;;;;
2021/08/05 08:45:57;;;;;;;;;;;;;;;;;;;;;
2021/08/05 09:13:42;;;;;;;;;;;;;;;;;;;;;
2021/08/05 09:28:03;;;;;;;;;;;;;;;;;;;;;
2021/08/05 09:31:52;;;;;;;;;;;;;;;;;;;;;
2021/08/05 09:35:12;;;;;;;;;;;;;;;;;;;;;
2021/08/05 09:49:14;;;;;;;;;;;;;;;;;;;;;
2021/08/05 09:52:47;;;;;;;12.07;10.98;;;21.10;83.70;;;;;;6014659;23;20031;-92
2021/08/05 10:06:57;;;;;;;;;;;;;;;;;;;;;
2021/08/05 10:14:18;;;;;;;;;;;;;;;;;;;;;
2021/08/05 11:15:25;;;;;;;;;;;;;;;;;;;;;
2021/08/05 12:04:15;;;;;;;;;;;;;;;;;;;;;
2021/08/05 15:04:22;;;;;;;11.80;10.77;;;22.30;75.10;;;;;;6370444;22;20090;-87
2021/08/05 15:06:50;;;;;;;10.13;9.30;;;22.30;74.70;;;;;;6369208;22;20324;-85
2021/08/05 15:09:25;;;;;;;13.80;12.50;;;22.30;74.70;;;;;;6370373;22;20005;-84
2021/08/05 15:11:51;;;;;;;11.40;10.30;;;22.30;74.70;;;;;;6318564;22;20010;-86
2021/08/05 15:14:19;;;;;;;13.07;11.88;;;22.30;74.90;;;;;;6371583;22;20002;-84
2021/08/05 15:16:45;;;;;;;10.38;9.30;;;22.40;75.20;;;;;;6371736;22;20081;-84
2021/08/05 15:19:29;;;;;;;;;;;;;;;;;;;;;
2021/08/05 15:21:55;;;;;;;11.82;10.73;;;22.50;75.90;;;;;;6346241;22;20085;-86
2021/08/05 15:24:30;;;;;;;12.18;11.05;;;22.60;76.00;;;;;;6343579;22;20032;-85
2021/08/05 15:27:04;;;;;;;11.85;10.73;;;22.60;76.20;;;;;;6343351;22;20006;-84
2021/08/05 15:29:41;;;;;;;11.75;10.65;;;22.60;76.30;;;;;;6343682;22;20010;-86
2021/08/05 15:32:18;;;;;;;12.48;11.27;;;22.70;76.50;;;;;;6320799;22;20090;-85
2021/08/05 15:34:46;;;;;;;11.55;10.52;;;22.70;76.50;;;;;;6345501;22;20003;-84
2021/08/05 15:37:16;;;;;;;15.55;14.05;;;22.70;76.80;;;;;;6343395;22;20003;-85
2021/08/05 15:39:47;;;;;;;14.23;12.82;;;22.70;76.50;;;;;;6343320;22;20408;-84
2021/08/05 15:42:13;;;;;;;14.00;12.60;;;22.80;76.50;;;;;;6346039;22;20071;-84
2021/08/05 15:44:41;;;;;;;16.05;14.55;;;22.80;76.60;;;;;;6345346;22;20410;-85
2021/08/05 15:47:07;;;;;;;14.52;13.23;;;22.80;76.40;;;;;;6343841;22;20132;-85
2021/08/05 15:49:40;;;;;;;13.75;12.40;;;22.80;76.60;;;;;;6371689;22;20420;-84
2021/08/05 15:52:06;;;;;;;13.52;12.23;;;22.80;76.80;;;;;;6342776;22;20047;-84
2021/08/05 15:54:48;;;;;;;12.93;11.73;;;22.80;77.10;;;;;;6371926;22;20434;-85
2021/08/05 15:57:17;;;;;;;14.43;12.95;;;22.90;77.50;;;;;;6344370;22;20006;-84
2021/08/05 15:59:42;;;;;;;13.93;12.60;;;22.90;77.60;;;;;;6371536;22;20003;-83
2021/08/05 16:02:12;;;;;;;14.27;12.90;;;22.90;77.70;;;;;;6369810;22;20472;-84
2021/08/05 16:04:45;;;;;;;14.27;13.00;;;22.90;77.90;;;;;;6344888;22;19998;-84
2021/08/05 16:22:26;;;;;;;;;;;;;;;;;;;;;
2021/08/05 16:39:31;;;;;;;;;;;;;;;;;;;;;
2021/08/05 16:55:25;;;;;;;12.75;11.55;;;22.70;77.80;;;;;;6351186;22;20030;-85
2021/08/05 16:58:01;;;;;;;17.67;15.95;;;22.70;78.00;;;;;;6355630;22;20050;-88
2021/08/05 17:00:34;;;;;;;14.90;13.52;;;22.70;77.50;;;;;;6385324;22;20002;-89
2021/08/05 17:03:00;;;;;;;13.70;12.40;;;22.70;76.80;;;;;;6361252;22;20002;-86
2021/08/05 17:05:27;;;;;;;12.82;11.55;;;22.70;76.70;;;;;;6383455;22;20418;-86
2021/08/05 17:08:03;;;;;;;11.98;10.88;;;22.70;76.90;;;;;;6386207;22;19986;-85
2021/08/05 17:10:29;;;;;;;13.07;11.85;;;22.70;77.30;;;;;;6361232;22;19999;-86
2021/08/05 17:12:57;;;;;;;11.48;10.48;;;22.70;77.40;;;;;;6358454;22;20026;-86
2021/08/05 17:15:26;;;;;;;12.38;11.15;;;22.70;77.40;;;;;;6385598;22;20016;-86
2021/08/05 17:17:52;;;;;;;14.50;13.10;;;22.70;77.60;;;;;;6386424;22;20009;-85
2021/08/05 17:20:20;;;;;;;11.98;10.88;;;22.70;77.20;;;;;;6387810;22;20011;-88
2021/08/05 17:22:49;;;;;;;12.93;11.68;;;22.70;77.20;;;;;;6388819;22;19979;-86
2021/08/05 17:25:15;;;;;;;11.85;10.70;;;22.70;77.30;;;;;;6363255;22;19983;-87
2021/08/05 17:28:00;;;;;;;12.52;11.23;;;22.70;77.30;;;;;;6363057;22;20001;-87
2021/08/05 17:30:26;;;;;;;11.32;10.30;;;22.70;77.40;;;;;;6367174;22;19982;-87
2021/08/05 17:32:59;;;;;;;11.55;10.45;;;22.70;78.20;;;;;;6362831;22;20034;-86
2021/08/05 17:35:27;;;;;;;12.25;11.05;;;22.70;77.60;;;;;;6387174;22;19979;-86
2021/08/05 17:37:53;;;;;;;12.27;11.07;;;22.70;77.20;;;;;;6387417;22;20435;-88
2021/08/05 17:40:21;;;;;;;11.25;10.15;;;22.70;77.10;;;;;;6385577;22;20010;-91
2021/08/05 17:42:47;;;;;;;11.48;10.43;;;22.70;77.00;;;;;;6384664;22;20003;-85
2021/08/05 17:45:16;;;;;;;11.57;10.57;;;22.70;76.90;;;;;;6384947;22;20063;-86
2021/08/05 17:47:45;;;;;;;10.68;9.63;;;22.70;76.90;;;;;;6357407;22;20173;-86
2021/08/05 17:50:16;;;;;;;12.70;9.77;;;22.70;77.00;;;;;;6381518;22;20066;-85
2021/08/05 17:52:44;;;;;;;13.07;11.77;;;22.70;77.00;;;;;;6353952;22;20359;-87
2021/08/05 17:55:13;;;;;;;11.05;9.90;;;22.60;76.90;;;;;;6325442;22;20015;-86
2021/08/05 17:57:39;;;;;;;11.27;10.18;;;22.60;76.90;;;;;;6323194;22;19995;-89
2021/08/05 18:00:09;;;;;;;11.10;10.10;;;22.60;76.90;;;;;;6321156;22;20022;-86
2021/08/05 18:02:47;;;;;;;10.98;9.90;;;22.60;76.90;;;;;;6344577;22;20004;-85
2021/08/05 18:05:28;;;;;;;;;;;;;;;;;;;;;
2021/08/05 18:08:13;;;;;;;11.25;10.23;;;22.50;77.20;;;;;;6342789;22;20389;-86
2021/08/05 18:10:52;;;;;;;10.90;9.80;;;22.50;77.30;;;;;;6313093;22;20006;-86
2021/08/05 18:13:24;;;;;;;11.52;10.43;;;22.40;77.30;;;;;;6311765;22;20027;-87
2021/08/05 18:15:54;;;;;;;11.48;10.48;;;22.40;77.50;;;;;;6340029;22;19999;-87
2021/08/05 18:18:27;;;;;;;11.43;10.32;;;22.30;77.60;;;;;;6341147;22;19999;-86
2021/08/05 18:20:55;;;;;;;11.18;10.07;;;22.30;77.70;;;;;;6287899;22;20033;-87
2021/08/05 18:23:21;;;;;;;11.18;10.07;;;22.20;78.00;;;;;;6313407;22;19999;-86
2021/08/05 18:25:47;;;;;;;10.48;9.55;;;22.20;78.40;;;;;;6320026;22;20021;-88
2021/08/05 18:28:16;;;;;;;11.45;10.50;;;22.10;78.70;;;;;;6318504;22;20002;-85
2021/08/05 18:30:47;;;;;;;13.18;11.98;;;22.10;78.90;;;;;;6317241;22;19994;-86
2021/08/05 18:33:30;;;;;;;;;;;;;;;;;;;;;
2021/08/05 18:35:58;;;;;;;12.07;10.90;;;22.00;79.10;;;;;;6316447;22;20479;-88
2021/08/05 18:38:27;;;;;;;12.13;10.95;;;22.00;79.50;;;;;;6317362;22;20002;-86
2021/08/05 18:40:53;;;;;;;11.60;10.55;;;21.90;79.70;;;;;;6344257;22;20059;-87
2021/08/05 18:43:19;;;;;;;12.63;11.35;;;21.90;80.00;;;;;;6316097;22;20002;-86
2021/08/05 18:45:49;;;;;;;11.73;10.63;;;21.80;80.10;;;;;;6315624;22;20002;-86
2021/08/05 18:48:21;;;;;;;11.73;10.73;;;21.80;80.30;;;;;;6314809;22;20005;-86
2021/08/05 18:50:50;;;;;;;11.13;10.20;;;21.80;80.40;;;;;;6313731;22;20089;-87
2021/08/05 18:53:27;;;;;;;12.27;11.07;;;21.70;80.50;;;;;;6314520;22;19999;-87
2021/08/05 18:56:00;;;;;;;12.27;11.13;;;21.70;80.60;;;;;;6337350;22;20037;-87
2021/08/05 18:58:26;;;;;;;12.38;11.27;;;21.60;80.70;;;;;;6367345;22;20006;-87
2021/08/05 19:00:55;;;;;;;12.55;11.38;;;21.60;80.90;;;;;;6341016;22;19999;-87
2021/08/05 19:03:31;;;;;;;12.88;11.68;;;21.50;81.10;;;;;;6362474;22;20439;-88
2021/08/05 19:06:00;;;;;;;12.63;11.43;;;21.50;81.40;;;;;;6369374;22;19999;-86
2021/08/05 19:08:25;;;;;;;12.25;11.05;;;21.40;81.60;;;;;;6367696;22;20332;-87
2021/08/05 19:10:56;;;;;;;12.73;11.43;;;21.40;81.80;;;;;;6337895;22;19999;-87
2021/08/05 19:13:24;;;;;;;12.00;10.52;;;21.30;82.00;;;;;;6339811;22;20001;-85
2021/08/05 19:15:49;;;;;;;12.45;11.35;;;21.20;82.10;;;;;;6313089;22;20352;-87
2021/08/05 19:18:18;;;;;;;12.32;11.13;;;21.20;82.20;;;;;;6337302;22;20088;-89
2021/08/05 19:20:49;;;;;;;12.38;11.27;;;21.20;82.40;;;;;;6362177;22;20010;-86
2021/08/05 19:23:17;;;;;;;;;;;21.10;82.40;;;;;;6338293;22;19998;-87
2021/08/05 19:26:35;;;;;;;11.90;10.85;;;21.10;82.50;;;;;;6337538;22;19898;-87
2021/08/05 19:29:22;;;;;;;12.07;11.00;;;21.00;82.80;;;;;;6333434;22;20538;-87
2021/08/05 19:31:51;;;;;;;12.55;11.45;;;20.90;82.90;;;;;;6364342;22;20064;-89
2021/08/05 19:34:17;;;;;;;12.35;11.18;;;20.90;83.00;;;;;;6338858;22;20013;-86
2021/08/05 19:36:43;;;;;;;13.15;11.95;;;20.80;83.10;;;;;;6361532;22;19999;-87
2021/08/05 19:39:11;;;;;;;13.45;12.15;;;20.80;83.20;;;;;;6333460;22;20003;-88
2021/08/05 19:41:40;;;;;;;13.65;12.35;;;20.80;83.30;;;;;;6336357;22;20056;-86
2021/08/05 19:44:05;;;;;;;13.68;12.55;;;20.70;83.40;;;;;;6336498;22;19995;-88
2021/08/05 19:46:33;;;;;;;13.77;12.57;;;20.70;83.50;;;;;;6339392;22;20002;-89
2021/08/05 19:48:59;;;;;;;14.05;12.75;;;20.70;83.50;;;;;;6341147;22;19995;-87
2021/08/05 19:51:27;;;;;;;13.63;12.43;;;20.60;83.50;;;;;;6362925;22;20081;-86
2021/08/05 19:54:01;;;;;;;13.95;12.75;;;20.60;83.60;;;;;;6338238;22;20006;-87
